• Join FlightAware (Why Join?)
  • Login
  • US Flag 
10:09PM EDT


 

Airport Tracker/Info


-or-


 

Live Flight TrackerFlight Track Log ✈ SWA2626 ✈ 30-Apr-2013 ✈ KMHT - KMDW

Flight Track Log - Related Links

Times and Time Zones

All times are in EDT time to prevent confusion due to time zone crossing. See the SWA2626 flight status page for this flight to view local times or setup timezone preferences in your user account.

Time Position Orientation Groundspeed Altitude Reporting Facility
EDT Latitude Longitude Course Direction KTS MPH feet Rate Location/Type
05:18PM 42.9167 -71.4167 215° Southwest 149 171 1,100  Level KA90
05:18PM 42.8983 -71.4339 215° Southwest 183 211 1,600 1,920 Climbing Boston Center
05:19PM 42.8925 -71.4908 262° West 183 211 3,700 2,100 Climbing Boston Center
05:20PM 42.8972 -71.5756 274° West 219 252 5,900 3,000 Climbing Boston Center
05:21PM 42.9064 -71.6889 276° West 274 315 9,700 3,300 Climbing Boston Center
05:22PM 42.9156 -71.8219 275° West 312 359 12,500 2,940 Climbing Boston Center
05:23PM 42.9244 -71.9411 276° West 347 399 15,600 3,000 Climbing Boston Center
05:24PM 42.9356 -72.0942 276° West 366 421 18,600 2,820 Climbing Boston Center
05:25PM 42.9464 -72.2386 276° West 377 434 21,300 2,400 Climbing Boston Center
05:26PM 42.9631 -72.3747 280° West 394 453 23,500 2,280 Climbing Boston Center
05:27PM 42.9756 -72.5281 276° West 408 470 25,900 2,220 Climbing Boston Center
05:28PM 42.9794 -72.6928 272° West 420 483 28,000 1,920 Climbing Boston Center
05:29PM 42.9872 -72.8544 274° West 427 491 29,800 1,980 Climbing Boston Center
05:30PM 43.0033 -73.0392 277° West 445 512 32,000 2,160 Climbing Boston Center
05:31PM 43.0128 -73.2039 275° West 445 512 34,200 1,800 Climbing Boston Center
05:32PM 43.0239 -73.3631 276° West 445 512 35,700 900 Climbing Boston Center
05:33PM 43.0289 -73.5222 273° West 440 506 36,000 120 Climbing Boston Center
05:34PM 43.0397 -73.6872 275° West 435 501 36,000  Level Boston Center
05:35PM 43.0503 -73.8522 275° West 441 507 36,000  Level Boston Center
05:36PM 43.0583 -74.0200 274° West 441 507 36,000  Level Boston Center
05:37PM 43.0686 -74.1853 275° West 441 507 36,000  Level Boston Center
05:38PM 43.1306 -74.3519 297° West 407 468 36,000  Level Boston Center
05:39PM 43.2119 -74.4656 315° West 407 468 36,000  Level Boston Center
05:40PM 43.2892 -74.5767 314° West 412 474 36,000  Level Boston Center
05:41PM 43.3683 -74.6850 315° West 407 468 36,000  Level Boston Center
05:42PM 43.4389 -74.8050 309° West 401 461 36,000  Level Boston Center
05:43PM 43.4311 -74.9675 266° West 387 445 36,000  Level Boston Center
05:44PM 43.4025 -75.1292 256° West 414 476 36,000  Level Boston Center
05:45PM 43.3714 -75.2964 256° West 440 506 36,000  Level Boston Center
05:46PM 43.3467 -75.4467 257° West 446 513 36,000  Level Boston Center
05:47PM 43.3194 -75.6022 257° West 446 513 36,000  Level Boston Center
05:48PM 43.2919 -75.7636 257° West 441 507 36,000  Level Boston Center
05:49PM 43.2642 -75.9247 257° West 441 507 36,000  Level Boston Center
05:50PM 43.2342 -76.0853 256° West 441 507 36,000  Level Boston Center
05:52PM 43.1853 -76.3544 256° West 442 509 36,000  Level Cleveland Center
05:53PM 43.1578 -76.5186 257° West 442 509 36,000  Level Cleveland Center
05:54PM 43.1261 -76.6831 255° West 442 509 36,000  Level Cleveland Center
05:55PM 43.0994 -76.8242 256° West 442 509 36,000  Level Cleveland Center
05:56PM 43.0650 -76.9881 254° West 442 509 36,000  Level Cleveland Center
05:57PM 43.0367 -77.1489 257° West 442 509 36,000  Level Cleveland Center
05:58PM 43.0039 -77.3153 255° West 447 514 36,000  Level Cleveland Center
05:59PM 42.9750 -77.4731 256° West 447 514 36,000  Level Cleveland Center
06:00PM 42.9436 -77.6364 255° West 441 507 36,000  Level Cleveland Center
06:01PM 42.9142 -77.7936 256° West 441 507 36,000  Level Cleveland Center
06:02PM 42.8825 -77.9536 255° West 441 507 36,000  Level Cleveland Center
06:03PM 42.8489 -78.1278 255° West 441 507 36,000  Level Cleveland Center
06:04PM 42.8167 -78.2850 254° West 441 507 36,000  Level Cleveland Center
06:05PM 42.7864 -78.4417 255° West 441 507 36,000  Level Cleveland Center
06:06PM 42.7517 -78.6011 254° West 441 507 36,000  Level Cleveland Center
06:07PM 42.7208 -78.7575 255° West 441 507 36,000  Level Cleveland Center
06:08PM 42.6878 -78.9139 254° West 436 502 36,000  Level Cleveland Center
06:09PM 42.6567 -79.0728 255° West 436 502 36,000  Level Cleveland Center
06:10PM 42.6231 -79.2261 253° West 436 502 36,000  Level Cleveland Center
06:11PM 42.5917 -79.3817 255° West 436 502 36,000  Level Cleveland Center
06:12PM 42.5575 -79.5347 253° West 431 496 36,000  Level Cleveland Center
06:13PM 42.5256 -79.6900 254° West 431 496 36,000  Level Cleveland Center
06:14PM 42.4953 -79.8425 255° West 431 496 36,000  Level Cleveland Center
06:15PM 42.4567 -80.0006 252° West 436 502 36,000  Level Cleveland Center
06:16PM 42.4219 -80.1556 253° West 437 503 36,000  Level Cleveland Center
06:17PM 42.3889 -80.3106 254° West 437 503 36,000  Level Cleveland Center
06:18PM 42.3539 -80.4594 252° West 432 497 36,000  Level Cleveland Center
06:19PM 42.3206 -80.6169 254° West 432 497 36,000  Level Cleveland Center
06:20PM 42.2892 -80.7486 252° West 432 497 36,000  Level Cleveland Center
06:21PM 42.2533 -80.9031 253° West 432 497 36,000  Level Cleveland Center
06:22PM 42.2194 -81.0542 253° West 427 491 36,000  Level Cleveland Center
06:23PM 42.1833 -81.2081 252° West 427 491 36,000  Level Cleveland Center
06:24PM 42.1492 -81.3561 253° West 422 486 36,000  Level Cleveland Center
06:25PM 42.1167 -81.5097 254° West 422 486 36,000  Level Cleveland Center
06:26PM 42.0800 -81.6603 252° West 422 486 36,000  Level Cleveland Center
06:27PM 42.0450 -81.8133 253° West 427 491 36,000  Level Cleveland Center
06:28PM 42.0036 -81.9803 252° West 427 491 36,000  Level Cleveland Center
06:29PM 41.9661 -82.1358 252° West 427 491 36,000  Level Cleveland Center
06:30PM 41.9328 -82.2747 252° West 432 497 36,000  Level Cleveland Center
06:31PM 41.8931 -82.4297 251° West 439 505 36,000  Level Cleveland Center
06:32PM 41.8550 -82.5847 252° West 439 505 36,000  Level Cleveland Center
06:33PM 41.8167 -82.7397 252° West 439 505 36,000  Level Cleveland Center
06:34PM 41.7739 -82.9081 251° West 439 505 36,000  Level Cleveland Center
06:35PM 41.7350 -83.0597 251° West 439 505 36,000  Level Cleveland Center
06:36PM 41.7006 -83.2142 253° West 439 505 36,000  Level Cleveland Center
06:37PM 41.6572 -83.3653 249° West 439 505 36,000  Level Cleveland Center
06:38PM 41.6219 -83.5219 253° West 439 505 36,000  Level Cleveland Center
06:39PM 41.5828 -83.6703 251° West 434 499 36,000  Level Cleveland Center
06:41PM 41.4903 -84.0381 252° West 421 484 36,000  Level Chicago Center
06:42PM 41.4625 -84.1886 256° West 423 487 36,000 -1,020 Level Chicago Center
06:43PM 41.4678 -84.3394 273° West 412 474 33,900 -1,680 Descending Chicago Center
06:44PM 41.4750 -84.4903 274° West 409 471 32,600 -1,860 Descending Chicago Center
06:45PM 41.4806 -84.6475 273° West 421 484 30,100 -1,260 Descending Chicago Center
06:46PM 41.4869 -84.8064 273° West 429 494 30,000 -60 Descending Chicago Center
06:47PM 41.4933 -84.9975 273° West 432 497 30,000 -240 Level Chicago Center
06:48PM 41.4992 -85.1589 273° West 433 498 29,600 -1,800 Descending Chicago Center
06:49PM 41.5031 -85.3219 272° West 435 501 26,400 -2,760 Descending Chicago Center
06:50PM 41.5078 -85.4864 272° West 434 499 24,000 -1,560 Descending Chicago Center
06:52PM 41.5144 -85.6422 273° West 417 480 23,200 -1,260 Descending Chicago Center
06:53PM 41.5183 -85.7972 272° West 414 476 21,400 -2,100 Descending Chicago Center
06:54PM 41.5228 -85.9422 272° West 396 456 18,900 -2,340 Descending Chicago Center
06:55PM 41.5247 -86.0844 271° West 382 440 16,600 -2,340 Descending Chicago Center
06:56PM 41.5236 -86.2194 269° West 366 421 14,100 -2,580 Descending Chicago Center
06:57PM 41.5231 -86.3764 270° West 352 405 11,300 -1,500 Descending Chicago Center
06:58PM 41.5219 -86.4917 269° West 310 357 11,000 -600 Descending Chicago Center
06:59PM 41.5208 -86.5922 269° West 275 316 10,100 -480 Descending Chicago Center
07:00PM 41.5194 -86.6883 269° West 261 300 10,100  Level Chicago Center
07:01PM 41.4947 -86.7692 248° West 222 255 10,100  Level Chicago Center
07:02PM 41.4817 -86.8456 257° West 226 260 10,100  Level Chicago Center
07:03PM 41.4900 -86.9272 278° West 224 258 10,100 -300 Level Chicago Center
07:04PM 41.4986 -87.0122 278° West 231 266 9,600 -1,080 Descending Chicago Center
07:05PM 41.5103 -87.1111 279° West 226 260 7,900 -1,380 Descending Chicago Center
07:06PM 41.5167 -87.1833 277° West 218 251 7,000 -900 Descending Chicago TRACON
07:07PM 41.5333 -87.2667 285° West 231 266 6,200 -900 Descending Chicago TRACON
07:08PM 41.5667 -87.3500 298° West 240 276 5,200 -660 Descending Chicago TRACON
07:09PM 41.5833 -87.4167 289° West 207 238 4,900 -60 Descending Chicago TRACON
07:10PM 41.6167 -87.4833 304° West 180 207 5,100 120 Climbing Chicago TRACON
07:10PM 41.6164 -87.4950 268° West 192 221 5,100 -780 Level Chicago Center
07:11PM 41.6422 -87.5528 301° West 188 216 4,100 -780 Descending Chicago Center
07:12PM 41.6817 -87.6058 315° West 199 229 3,500 -900 Descending Chicago Center
07:13PM 41.7167 -87.6500 317° Northwest 208 239 2,500 -1,020 Descending Chicago TRACON
07:14PM 41.7667 -87.6667 346° North 206 237 1,700 -420 Descending Chicago TRACON
07:15PM 41.8167 -87.6667 360° North 176 203 1,700 -180 Level Chicago TRACON
07:16PM 41.8167 -87.7000 270° West 128 147 1,400 -300 Descending Chicago TRACON